createdAt,value
2022-11-03T00:01:57.154Z,63.11
2022-11-03T00:04:23.833Z,62.93
2022-11-03T00:06:52.569Z,63.22
2022-11-03T00:09:21.137Z,63.74
2022-11-03T00:11:50.677Z,63.39
2022-11-03T00:14:17.831Z,63.52
2022-11-03T00:16:44.980Z,63.28
2022-11-03T00:19:12.020Z,63.28
2022-11-03T00:21:38.805Z,63.21
2022-11-03T00:24:05.794Z,62.63
2022-11-03T00:26:34.095Z,62.28
2022-11-03T00:29:06.057Z,62.49
2022-11-03T00:31:37.887Z,63.09
2022-11-03T00:34:05.254Z,62.67
2022-11-03T00:36:34.373Z,62.38
2022-11-03T00:39:01.243Z,61.76
2022-11-03T00:41:28.337Z,63.25
2022-11-03T00:43:54.998Z,63.29
2022-11-03T00:46:22.298Z,63.16
2022-11-03T00:48:49.270Z,63.66
2022-11-03T00:51:18.810Z,62.92
2022-11-03T00:53:59.819Z,62.45
2022-11-03T00:56:32.414Z,62.37
2022-11-03T00:59:01.820Z,63.35
2022-11-03T01:01:36.283Z,62.72
2022-11-03T01:04:24.577Z,62.55
2022-11-03T01:06:54.308Z,62.73
2022-11-03T01:09:23.721Z,62.47
2022-11-03T01:11:52.981Z,63.41
2022-11-03T01:14:19.941Z,63.18
2022-11-03T01:16:46.370Z,63.78
2022-11-03T01:19:12.894Z,63.74
2022-11-03T01:21:39.484Z,64.01
2022-11-03T01:24:06.283Z,63.93
2022-11-03T01:26:32.749Z,64.98
2022-11-03T01:29:00.513Z,65.13
2022-11-03T01:31:27.836Z,64.99
2022-11-03T01:33:56.186Z,64.81
2022-11-03T01:36:23.200Z,64.59
2022-11-03T01:38:49.977Z,64.44
2022-11-03T01:41:21.954Z,64.13
2022-11-03T01:44:09.172Z,64.33
2022-11-03T01:46:40.523Z,65.08
2022-11-03T01:49:15.081Z,65.53
2022-11-03T01:51:46.206Z,65.52
2022-11-03T01:54:18.350Z,65.54
2022-11-03T01:56:46.845Z,65.92
2022-11-03T01:59:16.588Z,65.29
2022-11-03T02:01:45.376Z,65.74
2022-11-03T02:04:19.327Z,65.08
2022-11-03T02:06:51.071Z,66.00
2022-11-03T02:09:18.529Z,65.14
2022-11-03T02:12:13.922Z,64.68
2022-11-03T02:14:56.258Z,64.03
2022-11-03T02:17:26.816Z,63.92
2022-11-03T02:20:01.235Z,64.83
2022-11-03T02:22:49.412Z,65.33
2022-11-03T02:25:42.173Z,66.18
2022-11-03T02:28:09.470Z,66.27
2022-11-03T02:30:43.981Z,65.92
2022-11-03T02:33:29.559Z,65.69
2022-11-03T02:36:03.715Z,65.96
2022-11-03T02:38:32.203Z,65.92
2022-11-03T02:41:03.110Z,65.27
2022-11-03T02:43:30.219Z,65.24
2022-11-03T02:45:56.694Z,65.02
2022-11-03T02:48:23.236Z,64.33
2022-11-03T02:50:49.672Z,64.09
2022-11-03T02:53:16.683Z,63.67
2022-11-03T02:55:53.343Z,62.85
2022-11-03T02:58:38.180Z,63.67
2022-11-03T03:01:14.801Z,64.21
2022-11-03T03:03:48.044Z,63.17
2022-11-03T03:06:24.792Z,63.44
2022-11-03T03:08:56.172Z,64.19
2022-11-03T03:11:37.589Z,64.36
2022-11-03T03:14:16.206Z,63.85
2022-11-03T03:16:45.324Z,64.14
2022-11-03T03:19:30.112Z,63.96
2022-11-03T03:22:01.295Z,64.08
2022-11-03T03:24:46.814Z,64.81
2022-11-03T03:27:16.072Z,65.26
2022-11-03T03:29:53.134Z,65.10
2022-11-03T03:32:24.267Z,64.68
2022-11-03T03:34:52.757Z,65.42
2022-11-03T03:37:21.112Z,64.81
2022-11-03T03:39:52.470Z,64.91
2022-11-03T03:42:21.702Z,64.79
2022-11-03T03:44:50.358Z,65.78
2022-11-03T03:47:29.961Z,64.80
2022-11-03T03:49:57.209Z,63.56
2022-11-03T03:52:24.580Z,64.81
2022-11-03T03:54:51.915Z,65.06
2022-11-03T03:57:24.230Z,64.52
2022-11-03T03:59:50.879Z,64.19
2022-11-03T04:02:17.444Z,64.53
2022-11-03T04:04:44.010Z,63.25
2022-11-03T04:07:29.068Z,62.98
2022-11-03T04:09:55.560Z,63.17
2022-11-03T04:12:40.624Z,63.27
2022-11-03T04:15:26.356Z,63.72
2022-11-03T04:18:11.091Z,62.60
2022-11-03T04:21:09.587Z,63.84
2022-11-03T04:23:36.008Z,64.08
2022-11-03T04:26:04.202Z,64.69
2022-11-03T04:28:30.658Z,64.45
2022-11-03T04:31:01.192Z,64.17
2022-11-03T04:33:30.010Z,64.83
2022-11-03T04:35:59.236Z,64.50
2022-11-03T04:38:27.437Z,65.22
2022-11-03T04:40:56.190Z,65.87
2022-11-03T04:43:29.379Z,67.01
2022-11-03T04:45:55.845Z,66.70
2022-11-03T04:48:22.925Z,66.67
2022-11-03T04:50:53.123Z,67.42
2022-11-03T04:53:21.359Z,67.15
2022-11-03T04:55:50.333Z,67.04
2022-11-03T04:58:28.558Z,67.51
2022-11-03T05:00:59.330Z,67.98
2022-11-03T05:03:30.979Z,66.98
2022-11-03T05:05:57.640Z,66.60
2022-11-03T05:08:24.903Z,65.81
2022-11-03T05:10:51.345Z,66.98
2022-11-03T05:13:23.225Z,67.44
2022-11-03T05:15:52.837Z,66.64
2022-11-03T05:18:27.288Z,65.87
2022-11-03T05:21:00.983Z,65.76
2022-11-03T05:23:30.800Z,65.82
2022-11-03T05:25:59.095Z,65.47
2022-11-03T05:28:30.556Z,65.60
2022-11-03T05:30:57.228Z,67.12
2022-11-03T05:33:23.670Z,67.22
2022-11-03T05:35:50.184Z,66.90
2022-11-03T05:38:20.509Z,66.44
2022-11-03T05:40:50.501Z,66.86
2022-11-03T05:43:18.175Z,66.75
2022-11-03T05:45:44.942Z,66.57
2022-11-03T05:48:27.874Z,67.02
2022-11-03T05:50:56.064Z,67.96
2022-11-03T05:53:28.515Z,66.42
2022-11-03T05:55:56.980Z,66.64
2022-11-03T05:58:29.213Z,66.76
2022-11-03T06:00:57.578Z,66.73
2022-11-03T06:03:27.418Z,66.72
2022-11-03T06:05:54.022Z,67.48
2022-11-03T06:10:58.253Z,66.97
2022-11-03T06:13:34.731Z,66.43
2022-11-03T06:16:26.521Z,67.29
2022-11-03T06:18:53.008Z,66.49
2022-11-03T06:21:24.476Z,65.78
2022-11-03T06:23:53.857Z,65.85
2022-11-03T06:26:27.169Z,66.76
2022-11-03T06:28:55.239Z,66.95
2022-11-03T06:31:27.703Z,67.58
2022-11-03T06:33:55.389Z,67.28
2022-11-03T06:36:25.968Z,66.84
2022-11-03T06:38:57.602Z,66.79
2022-11-03T06:41:27.077Z,67.07
2022-11-03T06:43:54.150Z,67.39
2022-11-03T06:46:23.867Z,66.95
2022-11-03T06:48:52.541Z,67.30
2022-11-03T06:51:22.258Z,66.68
2022-11-03T06:53:51.258Z,66.89
2022-11-03T06:56:26.602Z,66.26
2022-11-03T06:58:55.370Z,66.29
2022-11-03T07:01:29.595Z,66.91
2022-11-03T07:04:23.826Z,67.29
2022-11-03T07:06:53.541Z,66.81
2022-11-03T07:09:23.924Z,66.98
2022-11-03T07:11:57.189Z,67.01
2022-11-03T07:14:31.733Z,67.74
2022-11-03T07:17:04.861Z,67.63
2022-11-03T07:19:38.991Z,66.28
2022-11-03T07:23:14.125Z,65.80
2022-11-03T07:26:01.212Z,66.29
2022-11-03T07:28:38.733Z,66.21
2022-11-03T07:31:16.917Z,65.98
2022-11-03T07:33:43.941Z,65.94
2022-11-03T07:36:18.153Z,64.05
2022-11-03T07:38:47.955Z,64.37
2022-11-03T07:41:20.094Z,65.66
2022-11-03T07:44:10.538Z,63.55
2022-11-03T07:46:36.997Z,63.19
2022-11-03T07:49:03.462Z,64.23
2022-11-03T07:51:45.613Z,62.91
2022-11-03T07:54:28.616Z,62.59
2022-11-03T07:57:05.920Z,62.84
2022-11-03T07:59:39.021Z,62.43
2022-11-03T08:02:26.884Z,61.92
2022-11-03T08:04:53.416Z,61.70
2022-11-03T08:07:19.863Z,62.39
2022-11-03T08:09:46.329Z,61.93
2022-11-03T08:12:12.751Z,60.99
2022-11-03T08:14:39.187Z,61.05
2022-11-03T08:17:05.728Z,62.26
2022-11-03T08:19:32.194Z,62.72
2022-11-03T08:21:58.685Z,62.38
2022-11-03T08:24:25.178Z,62.09
2022-11-03T08:26:51.801Z,62.25
2022-11-03T08:29:18.315Z,62.54
2022-11-03T08:31:44.909Z,62.05
2022-11-03T08:34:11.432Z,62.74
2022-11-03T08:36:37.971Z,62.42
2022-11-03T08:39:05.251Z,63.38
2022-11-03T08:41:31.750Z,64.41
2022-11-03T08:43:58.199Z,63.63
2022-11-03T08:46:24.695Z,63.25
2022-11-03T08:48:51.893Z,62.70
2022-11-03T08:51:18.302Z,63.75
2022-11-03T08:53:44.905Z,63.21
2022-11-03T08:56:14.213Z,62.78
2022-11-03T08:58:42.174Z,61.55
2022-11-03T09:01:08.630Z,61.32
2022-11-03T09:03:35.582Z,60.88
2022-11-03T09:06:02.207Z,61.31
2022-11-03T09:11:15.197Z,57.19
2022-11-03T09:13:41.698Z,56.38
2022-11-03T09:16:08.458Z,55.70
2022-11-03T09:18:34.893Z,55.89
2022-11-03T09:21:01.408Z,55.63
2022-11-03T09:23:27.826Z,54.28
2022-11-03T09:25:54.235Z,53.74
2022-11-03T09:28:20.656Z,53.00
2022-11-03T09:30:47.146Z,52.59
2022-11-03T09:33:13.608Z,51.92
2022-11-03T09:35:40.042Z,52.97
2022-11-03T09:38:08.012Z,52.53
2022-11-03T09:40:36.010Z,50.86
2022-11-03T09:43:02.810Z,52.13
2022-11-03T09:45:29.305Z,50.72
2022-11-03T09:47:56.508Z,50.07
2022-11-03T09:50:23.429Z,49.56
2022-11-03T09:52:52.428Z,51.25
2022-11-03T09:55:25.413Z,51.83
2022-11-03T09:58:01.535Z,53.78
2022-11-03T10:00:28.414Z,54.71
2022-11-03T10:02:55.722Z,54.86
2022-11-03T10:05:28.779Z,54.74
2022-11-03T10:08:02.991Z,55.16
2022-11-03T10:10:30.365Z,55.35
2022-11-03T10:12:57.181Z,55.66
2022-11-03T10:15:25.345Z,55.64
2022-11-03T10:17:52.057Z,55.49
2022-11-03T10:20:21.300Z,55.49
2022-11-03T10:22:52.393Z,56.87
2022-11-03T10:25:26.512Z,55.84
2022-11-03T10:27:53.023Z,57.21
2022-11-03T10:30:19.458Z,56.28
2022-11-03T10:32:45.871Z,57.73
2022-11-03T10:35:35.428Z,56.77
2022-11-03T10:38:22.392Z,56.13
2022-11-03T10:40:48.983Z,56.86
2022-11-03T10:43:15.504Z,56.18
2022-11-03T10:45:41.934Z,55.85
2022-11-03T10:48:10.811Z,55.79
2022-11-03T10:50:39.924Z,55.04
2022-11-03T10:53:16.932Z,56.27
2022-11-03T10:55:43.968Z,56.32
2022-11-03T10:58:10.986Z,55.70
2022-11-03T11:00:37.942Z,55.33
2022-11-03T11:03:06.376Z,54.89
2022-11-03T11:05:33.134Z,55.09
2022-11-03T11:08:00.010Z,55.45
2022-11-03T11:10:29.130Z,55.35
2022-11-03T11:13:23.547Z,54.44
2022-11-03T11:16:16.338Z,55.57
2022-11-03T11:18:42.708Z,54.43
2022-11-03T11:21:17.898Z,53.85
2022-11-03T11:23:46.492Z,55.01
2022-11-03T11:26:37.398Z,54.15
2022-11-03T11:29:10.103Z,54.22
2022-11-03T11:31:40.186Z,54.21
2022-11-03T11:34:09.766Z,53.51
2022-11-03T11:36:36.159Z,54.59
2022-11-03T11:39:04.504Z,53.94
2022-11-03T11:42:08.534Z,53.69
2022-11-03T11:44:47.930Z,52.22
2022-11-03T11:47:33.448Z,52.78
2022-11-03T11:50:06.252Z,52.63
2022-11-03T11:53:00.259Z,51.96
2022-11-03T11:55:38.055Z,52.27
2022-11-03T11:58:12.543Z,53.13
2022-11-03T12:00:51.261Z,53.13
2022-11-03T12:03:22.585Z,54.32
2022-11-03T12:05:52.706Z,54.41
2022-11-03T12:08:21.099Z,53.67
2022-11-03T12:10:55.380Z,52.83
2022-11-03T12:13:54.286Z,53.83
2022-11-03T12:16:28.373Z,54.37
2022-11-03T12:18:55.312Z,54.72
2022-11-03T12:21:55.660Z,54.40
2022-11-03T12:24:32.188Z,54.16
2022-11-03T12:26:59.787Z,54.26
2022-11-03T12:29:26.640Z,54.11
2022-11-03T12:31:53.486Z,53.84
2022-11-03T12:34:19.995Z,55.62
2022-11-03T12:36:48.018Z,54.56
2022-11-03T12:39:17.123Z,53.88
2022-11-03T12:41:43.587Z,54.21
2022-11-03T12:44:10.052Z,53.72
2022-11-03T12:46:36.586Z,54.01
2022-11-03T12:49:03.074Z,53.28
2022-11-03T12:51:29.749Z,52.88
2022-11-03T12:53:56.159Z,53.38
2022-11-03T12:56:22.586Z,53.66
2022-11-03T12:58:49.032Z,53.64
2022-11-03T13:01:15.562Z,55.17
2022-11-03T13:03:43.386Z,52.90
2022-11-03T13:06:11.615Z,54.09
2022-11-03T13:08:38.060Z,54.63
2022-11-03T13:11:25.063Z,55.77
2022-11-03T13:13:52.532Z,55.71
2022-11-03T13:16:19.462Z,56.68
2022-11-03T13:18:45.906Z,56.23
2022-11-03T13:21:13.411Z,56.70
2022-11-03T13:23:40.848Z,56.17
2022-11-03T13:26:07.510Z,56.62
2022-11-03T13:28:33.957Z,55.72
2022-11-03T13:31:00.447Z,57.03
2022-11-03T13:33:26.853Z,57.75
2022-11-03T13:35:53.367Z,57.13
2022-11-03T13:38:19.838Z,56.99
2022-11-03T13:41:08.180Z,55.71
2022-11-03T13:43:32.639Z,55.98
2022-11-03T13:46:02.258Z,56.60
2022-11-03T13:51:17.594Z,57.91
2022-11-03T13:56:30.645Z,57.12
2022-11-03T14:01:43.993Z,57.96
2022-11-03T14:06:57.049Z,58.89
2022-11-03T14:09:23.992Z,57.68
2022-11-03T14:12:09.237Z,58.21
2022-11-03T14:14:35.653Z,58.01
2022-11-03T14:17:02.125Z,60.44
2022-11-03T14:19:36.542Z,60.49
2022-11-03T14:22:06.232Z,60.38
2022-11-03T14:24:32.682Z,59.58
2022-11-03T14:26:59.090Z,60.18
2022-11-03T14:29:25.549Z,60.91
2022-11-03T14:31:51.966Z,61.93
2022-11-03T14:34:18.414Z,61.85
2022-11-03T14:36:44.878Z,61.68
2022-11-03T14:39:11.291Z,61.32
2022-11-03T14:41:55.956Z,61.73
2022-11-03T14:44:22.389Z,61.60
2022-11-03T14:46:48.843Z,61.48
2022-11-03T14:49:15.276Z,61.77
2022-11-03T14:51:41.788Z,61.55
2022-11-03T14:54:08.249Z,61.58
2022-11-03T14:56:34.663Z,61.22
2022-11-03T14:59:01.184Z,62.38
2022-11-03T15:01:27.945Z,62.06
2022-11-03T15:03:54.474Z,62.20
2022-11-03T15:06:21.583Z,62.04
2022-11-03T15:08:51.951Z,62.07
2022-11-03T15:11:21.678Z,62.29
2022-11-03T15:13:49.870Z,61.88
2022-11-03T15:16:17.957Z,62.05
2022-11-03T15:18:44.641Z,63.52
2022-11-03T15:21:11.378Z,62.88
2022-11-03T15:26:24.715Z,61.62
2022-11-03T15:28:51.617Z,62.93
2022-11-03T15:31:18.069Z,63.05
2022-11-03T15:33:44.489Z,63.37
2022-11-03T15:36:11.806Z,64.57
2022-11-03T15:38:38.328Z,64.27
2022-11-03T15:41:17.160Z,65.00
2022-11-03T15:43:44.904Z,64.51
2022-11-03T15:46:11.939Z,63.32
2022-11-03T15:48:38.962Z,62.94
2022-11-03T15:51:05.927Z,63.19
2022-11-03T15:53:32.514Z,62.89
2022-11-03T15:55:58.977Z,63.73
2022-11-03T15:58:25.477Z,63.84
2022-11-03T16:00:52.075Z,62.61
2022-11-03T16:03:18.622Z,62.81
2022-11-03T16:05:45.081Z,62.58
2022-11-03T16:08:11.586Z,62.51
2022-11-03T16:10:38.243Z,61.74
2022-11-03T16:13:04.657Z,61.00
2022-11-03T16:15:31.119Z,60.10
2022-11-03T16:18:02.630Z,60.06
2022-11-03T16:20:32.312Z,60.51
2022-11-03T16:22:58.751Z,60.08
2022-11-03T16:25:25.267Z,59.15
2022-11-03T16:27:51.713Z,58.35
2022-11-03T16:30:18.163Z,59.02
2022-11-03T16:32:44.896Z,59.44
2022-11-03T16:35:11.338Z,58.58
2022-11-03T16:37:37.814Z,58.26
2022-11-03T16:40:05.338Z,58.91
2022-11-03T16:42:38.165Z,57.66
2022-11-03T16:45:15.528Z,58.15
2022-11-03T16:47:42.022Z,57.79
2022-11-03T16:50:08.507Z,58.86
2022-11-03T16:52:34.940Z,58.18
2022-11-03T16:55:01.347Z,58.35
2022-11-03T16:57:27.781Z,58.04
2022-11-03T16:59:54.227Z,58.38
2022-11-03T17:02:20.655Z,58.51
2022-11-03T17:04:47.123Z,58.34
2022-11-03T17:07:13.554Z,58.04
2022-11-03T17:09:40.024Z,58.62
2022-11-03T17:12:06.580Z,58.89
2022-11-03T17:14:33.024Z,58.78
2022-11-03T17:16:59.430Z,59.87
2022-11-03T17:19:25.867Z,59.39
2022-11-03T17:21:52.302Z,58.60
2022-11-03T17:24:18.950Z,60.05
2022-11-03T17:26:58.626Z,60.13
2022-11-03T17:29:54.138Z,59.38
2022-11-03T17:32:36.941Z,60.04
2022-11-03T17:35:04.183Z,59.70
2022-11-03T17:37:30.627Z,59.95
2022-11-03T17:39:57.166Z,59.00
2022-11-03T17:42:25.972Z,58.68
2022-11-03T17:44:55.386Z,59.87
2022-11-03T17:47:23.660Z,59.24
2022-11-03T17:49:50.393Z,59.85
2022-11-03T17:52:26.746Z,60.05
2022-11-03T17:54:56.673Z,60.60
2022-11-03T17:57:23.478Z,60.36
2022-11-03T17:59:52.302Z,60.65
2022-11-03T18:02:21.925Z,60.54
2022-11-03T18:04:49.065Z,60.72
2022-11-03T18:07:26.800Z,60.43
2022-11-03T18:09:53.709Z,61.17
2022-11-03T18:12:43.494Z,60.83
2022-11-03T18:15:17.499Z,61.30
2022-11-03T18:17:43.959Z,62.01
2022-11-03T18:20:22.030Z,60.91
2022-11-03T18:22:48.640Z,60.76
2022-11-03T18:25:17.462Z,59.69
2022-11-03T18:27:45.780Z,60.05
2022-11-03T18:30:16.941Z,61.19
2022-11-03T18:32:45.617Z,60.54
2022-11-03T18:35:21.929Z,60.97
2022-11-03T18:37:48.892Z,59.92
2022-11-03T18:40:15.622Z,60.29
2022-11-03T18:42:42.255Z,60.15
2022-11-03T18:45:17.381Z,58.59
2022-11-03T18:47:44.126Z,59.95
2022-11-03T18:50:15.810Z,59.76
2022-11-03T18:52:44.854Z,60.90
2022-11-03T18:55:12.701Z,61.83
2022-11-03T18:57:39.787Z,60.53
2022-11-03T19:00:27.893Z,59.68
2022-11-03T19:02:54.293Z,60.96
2022-11-03T19:05:20.744Z,60.04
2022-11-03T19:07:49.903Z,60.83
2022-11-03T19:10:22.281Z,60.04
2022-11-03T19:12:48.738Z,60.79
2022-11-03T19:15:20.089Z,61.88
2022-11-03T19:17:49.273Z,61.84
2022-11-03T19:20:18.152Z,61.59
2022-11-03T19:22:46.706Z,61.05
2022-11-03T19:25:14.581Z,60.98
2022-11-03T19:27:45.191Z,61.66
2022-11-03T19:30:15.730Z,63.45
2022-11-03T19:32:52.012Z,62.75
2022-11-03T19:35:25.840Z,62.13
2022-11-03T19:38:01.041Z,61.77
2022-11-03T19:40:28.485Z,63.15
2022-11-03T19:42:55.209Z,64.03
2022-11-03T19:45:23.799Z,63.95
2022-11-03T19:48:22.609Z,63.61
2022-11-03T19:50:44.018Z,63.80
2022-11-03T19:53:23.779Z,63.26
2022-11-03T19:55:50.455Z,63.78
2022-11-03T19:58:20.224Z,63.79
2022-11-03T20:00:47.789Z,63.12
2022-11-03T20:03:14.439Z,63.78
2022-11-03T20:05:47.929Z,65.22
2022-11-03T20:08:19.694Z,64.87
2022-11-03T20:10:47.836Z,64.91
2022-11-03T20:13:17.908Z,64.72
2022-11-03T20:15:44.399Z,64.85
2022-11-03T20:18:14.880Z,64.64
2022-11-03T20:20:43.445Z,63.98
2022-11-03T20:23:38.242Z,64.29
2022-11-03T20:26:16.175Z,64.78
2022-11-03T20:28:42.923Z,63.73
2022-11-03T20:31:11.707Z,64.23
2022-11-03T20:33:39.540Z,65.02
2022-11-03T20:36:06.582Z,64.07
2022-11-03T20:38:33.567Z,64.31
2022-11-03T20:41:03.858Z,64.10
2022-11-03T20:43:49.588Z,64.95
2022-11-03T20:46:23.484Z,65.38
2022-11-03T20:48:50.478Z,64.22
2022-11-03T20:51:19.001Z,65.11
2022-11-03T20:53:45.821Z,64.81
2022-11-03T20:56:19.813Z,63.99
2022-11-03T20:58:47.065Z,63.74
2022-11-03T21:01:16.332Z,63.40
2022-11-03T21:03:58.973Z,65.30
2022-11-03T21:06:28.038Z,64.57
2022-11-03T21:08:55.100Z,65.61
2022-11-03T21:11:25.088Z,64.57
2022-11-03T21:13:52.713Z,64.83
2022-11-03T21:16:37.819Z,64.94
2022-11-03T21:19:33.291Z,65.76
2022-11-03T21:22:00.299Z,65.46
2022-11-03T21:26:53.242Z,64.89
2022-11-03T21:29:32.949Z,64.64
2022-11-03T21:32:07.821Z,64.42
2022-11-03T21:34:34.267Z,63.59
2022-11-03T21:37:00.663Z,64.59
2022-11-03T21:39:29.089Z,65.85
2022-11-03T21:42:14.701Z,64.97
2022-11-03T21:44:41.459Z,64.16
2022-11-03T21:47:08.357Z,65.96
2022-11-03T21:49:43.581Z,65.38
2022-11-03T21:52:15.409Z,66.95
2022-11-03T21:54:42.280Z,66.73
2022-11-03T21:57:11.073Z,66.63
2022-11-03T21:59:37.654Z,67.09
2022-11-03T22:02:05.269Z,67.05
2022-11-03T22:04:31.796Z,66.54
2022-11-03T22:06:59.196Z,64.91
2022-11-03T22:09:26.917Z,66.23
2022-11-03T22:11:54.130Z,66.83
2022-11-03T22:14:20.668Z,67.20
2022-11-03T22:16:47.423Z,66.04
2022-11-03T22:19:36.792Z,65.81
2022-11-03T22:22:29.024Z,66.06
2022-11-03T22:25:14.410Z,65.73
2022-11-03T22:27:41.387Z,65.71
2022-11-03T22:30:27.021Z,65.33
2022-11-03T22:32:55.354Z,65.15
2022-11-03T22:35:41.825Z,64.50
2022-11-03T22:38:13.504Z,65.45
2022-11-03T22:41:00.080Z,65.67
2022-11-03T22:44:03.210Z,66.13
2022-11-03T22:46:29.873Z,66.24
2022-11-03T22:48:56.289Z,66.01
2022-11-03T22:51:22.962Z,65.94
2022-11-03T22:54:07.974Z,66.42
2022-11-03T22:56:34.382Z,66.26
2022-11-03T22:59:00.801Z,67.58
2022-11-03T23:01:27.796Z,67.41
2022-11-03T23:03:54.891Z,67.60
2022-11-03T23:06:35.998Z,68.01
2022-11-03T23:09:02.723Z,67.77
2022-11-03T23:11:32.500Z,67.72
2022-11-03T23:14:08.566Z,68.30
2022-11-03T23:16:41.335Z,69.34
2022-11-03T23:19:29.369Z,68.88
2022-11-03T23:21:56.143Z,68.65
2022-11-03T23:24:45.137Z,68.08
2022-11-03T23:27:13.624Z,67.19
2022-11-03T23:29:40.342Z,66.58
2022-11-03T23:32:07.080Z,66.39
2022-11-03T23:34:35.040Z,64.92
2022-11-03T23:37:02.166Z,66.34
2022-11-03T23:39:28.618Z,65.55
2022-11-03T23:41:55.057Z,66.66
2022-11-03T23:44:21.514Z,66.13
2022-11-03T23:47:06.449Z,65.66
2022-11-03T23:49:32.869Z,66.89
2022-11-03T23:51:59.357Z,65.90
2022-11-03T23:54:27.166Z,66.49
2022-11-03T23:57:12.169Z,67.50
2022-11-03T23:59:38.769Z,67.61
